Roth, North Dakota
Current Conditions -  °F | °C
As of 1:58 PM on Friday 19 Dec 2014 (Local Time) from KMIB Reporting Station
Overcast Overcast  
Wind Chill: 27°   Ceiling: 300
Heat Index: 27°   Visibility: 7mi
Dew Point: 27°   Wind: 3mph
Humidity: 100%   Direction: 310°NW
Pressure: 29.91"   Gusts: NA
Location:  48.9505°N, 100.734°W
Report Text: KMIB 191958Z AUTO 31003KT 7SM OVC003 M03/M03 A2991 RMK AO2 SLP158 T10281028 $
Loading
Personal Weather Stations






























Interactive Weather Map New forecast layout! Learn more

10-Day Weather Forecast

Advertisements
Track Severe Weather on mobile